Sydenham, Canada
Current Conditions -  °F | °C
As of 9:29 AM on Saturday 22 Nov 2014 (Local Time) from CYVV Reporting Station
Light Rain Light Rain  
Wind Chill: 20°   Ceiling: 3000
Heat Index: 32°   Visibility: 12mi
Dew Point: 25°   Wind: 20mph
Humidity: 75%   Direction: 210°SSW
Pressure: 29.95"   Gusts: 26mph
Location:  44.57°N, 80.8°W
Report Text: CYVV 221429Z 21017G23KT 12SM -RA OVC030 00/M04 A2995 RMK SC8 SLP155
Loading
Personal Weather Stations






























Interactive Weather Map New forecast layout! Learn more

10-Day Weather Forecast

Advertisements
Track Severe Weather on mobile